Time;durP1;ratioP1;P1;durP2;ratioP2;P2;SDS_P1;SDS_P2;PMS_P1;PMS_P2;Temp;Humidity;BMP_temperature;BMP_pressure;BME280_temperature;BME280_humidity;BME280_pressure;Samples;Min_cycle;Max_cycle;Signal;HPM_P1;HPM_P2
2023/09/16 00:01:25;;;;;;;2.83;2.63;;;14.00;99.90;;;;;;4986299;28;20556;-52
2023/09/16 00:03:51;;;;;;;2.83;2.63;;;14.00;99.90;;;;;;4990016;28;20500;-52
2023/09/16 00:06:18;;;;;;;3.60;2.87;;;14.10;99.90;;;;;;4991481;28;20452;-52
2023/09/16 00:08:46;;;;;;;11.00;3.43;;;14.10;99.90;;;;;;4982476;28;20512;-52
2023/09/16 00:11:13;;;;;;;3.00;2.70;;;14.10;99.90;;;;;;4987641;28;20526;-52
2023/09/16 00:13:41;;;;;;;5.17;3.20;;;14.10;99.90;;;;;;4996963;28;20460;-52
2023/09/16 00:16:08;;;;;;;3.17;2.33;;;14.10;99.90;;;;;;4991922;28;20507;-52
2023/09/16 00:18:35;;;;;;;4.10;2.60;;;14.00;99.90;;;;;;4983372;28;20969;-53
2023/09/16 00:21:02;;;;;;;7.80;3.33;;;14.00;99.90;;;;;;4990674;28;20547;-52
2023/09/16 00:23:31;;;;;;;5.20;2.60;;;14.00;99.90;;;;;;4990619;28;20540;-52
2023/09/16 00:25:59;;;;;;;4.40;2.60;;;14.00;99.90;;;;;;4985413;28;20456;-52
2023/09/16 00:28:26;;;;;;;3.70;3.00;;;14.00;99.90;;;;;;4988131;28;20520;-52
2023/09/16 00:30:52;;;;;;;5.03;3.40;;;13.90;99.90;;;;;;4987586;28;20993;-52
2023/09/16 00:33:19;;;;;;;2.97;2.67;;;13.90;99.90;;;;;;4987932;28;20492;-53
2023/09/16 00:35:45;;;;;;;6.53;2.80;;;14.00;99.90;;;;;;4984539;28;20539;-52
2023/09/16 00:38:15;;;;;;;3.20;2.77;;;14.00;99.90;;;;;;4989051;28;20460;-52
2023/09/16 00:40:42;;;;;;;3.30;2.97;;;14.00;99.90;;;;;;4992156;28;20460;-53
2023/09/16 00:43:10;;;;;;;4.30;3.03;;;14.00;99.90;;;;;;4995207;28;20455;-53
2023/09/16 00:45:36;;;;;;;8.77;2.73;;;14.00;99.90;;;;;;4990960;28;20543;-53
2023/09/16 00:48:03;;;;;;;5.77;2.73;;;14.00;99.90;;;;;;5002050;28;20555;-54
2023/09/16 00:50:30;;;;;;;4.90;2.93;;;14.00;99.90;;;;;;4990653;28;20491;-53
2023/09/16 00:52:59;;;;;;;9.33;3.40;;;14.00;99.90;;;;;;4994364;28;20496;-54
2023/09/16 00:55:27;;;;;;;3.57;3.20;;;14.00;99.90;;;;;;4991176;28;20545;-54
2023/09/16 00:57:56;;;;;;;5.67;3.03;;;14.00;99.90;;;;;;4993883;28;21012;-53
2023/09/16 01:00:27;;;;;;;5.47;2.80;;;14.00;99.90;;;;;;4992846;28;20599;-54
2023/09/16 01:02:54;;;;;;;13.97;3.47;;;14.00;99.90;;;;;;4999245;28;20468;-53
2023/09/16 01:05:21;;;;;;;2.83;2.60;;;13.90;99.90;;;;;;4991681;28;20469;-53
2023/09/16 01:07:47;;;;;;;7.83;3.40;;;13.90;99.90;;;;;;4992913;28;20544;-53
2023/09/16 01:10:15;;;;;;;4.97;3.03;;;13.90;99.90;;;;;;4992821;28;20930;-53
2023/09/16 01:12:42;;;;;;;4.77;2.83;;;13.90;99.90;;;;;;4991600;28;20465;-53
2023/09/16 01:15:10;;;;;;;6.83;3.23;;;13.90;99.90;;;;;;4986636;28;20527;-53
2023/09/16 01:17:48;;;;;;;3.23;2.67;;;13.90;99.90;;;;;;4993987;28;20479;-53
2023/09/16 01:20:16;;;;;;;4.70;3.27;;;13.90;99.90;;;;;;4992946;28;20555;-54
2023/09/16 01:22:45;;;;;;;3.57;2.67;;;13.90;99.90;;;;;;4991797;28;21093;-53
2023/09/16 01:25:13;;;;;;;7.10;2.70;;;13.90;99.90;;;;;;4997295;28;20467;-52
2023/09/16 01:27:39;;;;;;;4.33;3.50;;;13.80;99.90;;;;;;4993302;28;20480;-54
2023/09/16 01:30:07;;;;;;;4.53;2.80;;;13.80;99.90;;;;;;4991468;28;20559;-54
2023/09/16 01:32:41;;;;;;;3.93;2.80;;;13.80;99.90;;;;;;4989588;28;20623;-54
2023/09/16 01:35:11;;;;;;;11.60;3.47;;;13.80;99.90;;;;;;4983787;28;20563;-53
2023/09/16 01:37:39;;;;;;;4.80;2.73;;;13.90;99.90;;;;;;4990009;28;20488;-54
2023/09/16 01:40:10;;;;;;;7.40;3.20;;;13.80;99.90;;;;;;4991136;28;20584;-54
2023/09/16 01:42:38;;;;;;;7.40;2.87;;;13.90;99.90;;;;;;4993322;28;20514;-53
2023/09/16 01:45:07;;;;;;;5.33;3.07;;;13.90;99.90;;;;;;4991850;28;20892;-54
2023/09/16 01:47:33;;;;;;;6.30;3.17;;;13.90;99.90;;;;;;4993370;28;20472;-53
2023/09/16 01:50:00;;;;;;;5.93;2.77;;;13.90;99.90;;;;;;4993740;28;20983;-53
2023/09/16 01:52:27;;;;;;;3.33;2.90;;;13.90;99.90;;;;;;4991317;28;20500;-53
2023/09/16 01:54:53;;;;;;;5.40;3.67;;;13.90;99.90;;;;;;4983261;28;20978;-53
2023/09/16 01:57:20;;;;;;;5.33;2.90;;;13.90;99.90;;;;;;4991015;28;20492;-54
2023/09/16 01:59:47;;;;;;;8.23;3.73;;;13.90;99.90;;;;;;4988451;28;20836;-53
2023/09/16 02:02:14;;;;;;;4.20;3.10;;;13.90;99.90;;;;;;4992893;28;20496;-53
2023/09/16 02:04:43;;;;;;;8.57;2.90;;;13.90;99.90;;;;;;4996206;28;20535;-54
2023/09/16 02:07:10;;;;;;;4.60;3.20;;;13.90;99.90;;;;;;4993194;28;20834;-53
2023/09/16 02:09:36;;;;;;;5.40;3.10;;;13.90;99.90;;;;;;4987688;28;20567;-53
2023/09/16 02:12:03;;;;;;;3.27;2.60;;;13.90;99.90;;;;;;4986922;28;20575;-53
2023/09/16 02:14:30;;;;;;;4.90;3.20;;;13.90;99.90;;;;;;4991919;28;20460;-53
2023/09/16 02:16:58;;;;;;;4.60;2.77;;;13.80;99.90;;;;;;4986349;28;20883;-53
2023/09/16 02:19:25;;;;;;;3.10;2.87;;;13.90;99.90;;;;;;4988785;28;20465;-55
2023/09/16 02:21:52;;;;;;;9.83;3.00;;;13.90;99.90;;;;;;4991466;28;20468;-54
2023/09/16 02:24:18;;;;;;;11.50;3.27;;;13.80;99.90;;;;;;4990885;28;20555;-54
2023/09/16 02:26:45;;;;;;;6.73;3.30;;;13.90;99.90;;;;;;4990142;28;20548;-54
2023/09/16 02:29:12;;;;;;;6.60;3.37;;;13.90;99.90;;;;;;4990283;28;21948;-53
2023/09/16 02:31:38;;;;;;;3.93;3.20;;;13.80;99.90;;;;;;4998366;28;20541;-54
2023/09/16 02:34:06;;;;;;;9.63;3.50;;;13.80;99.90;;;;;;4994434;28;20519;-54
2023/09/16 02:36:33;;;;;;;5.70;3.40;;;13.80;99.90;;;;;;4992035;28;20548;-53
2023/09/16 02:38:59;;;;;;;8.90;3.43;;;13.80;99.90;;;;;;4992148;28;21029;-53
2023/09/16 02:41:26;;;;;;;3.50;3.13;;;13.70;99.90;;;;;;4987306;28;20551;-53
2023/09/16 02:43:52;;;;;;;3.27;2.60;;;13.80;99.90;;;;;;4990697;28;21094;-53
2023/09/16 02:46:19;;;;;;;5.33;2.93;;;13.70;99.90;;;;;;4989445;28;20586;-53
2023/09/16 02:48:45;;;;;;;16.00;3.07;;;13.70;99.90;;;;;;4991987;28;20551;-53
2023/09/16 02:51:13;;;;;;;4.50;2.87;;;13.70;99.90;;;;;;4989369;28;20966;-53
2023/09/16 02:53:39;;;;;;;6.43;3.50;;;13.70;99.90;;;;;;4985550;28;20464;-54
2023/09/16 02:56:08;;;;;;;4.07;3.13;;;13.70;99.90;;;;;;4989635;28;20527;-53
2023/09/16 02:58:35;;;;;;;6.80;2.90;;;13.70;99.90;;;;;;4987110;28;20496;-54
2023/09/16 03:01:08;;;;;;;3.87;3.53;;;13.70;99.90;;;;;;4985247;28;20472;-53
2023/09/16 03:03:35;;;;;;;5.67;3.77;;;13.70;99.90;;;;;;4990316;28;20460;-52
2023/09/16 03:06:01;;;;;;;6.40;3.23;;;13.60;99.90;;;;;;4987861;28;20555;-53
2023/09/16 03:08:29;;;;;;;4.33;2.80;;;13.70;99.90;;;;;;4992832;28;20483;-53
2023/09/16 03:11:00;;;;;;;5.67;3.40;;;13.60;99.90;;;;;;4997602;28;20476;-53
2023/09/16 03:13:26;;;;;;;4.10;2.97;;;13.60;99.90;;;;;;4988503;28;20535;-54
2023/09/16 03:16:13;;;;;;;10.37;2.97;;;13.60;99.90;;;;;;4988785;28;20895;-54
2023/09/16 03:18:42;;;;;;;6.00;2.93;;;13.50;99.90;;;;;;4990775;28;20495;-54
2023/09/16 03:21:09;;;;;;;3.97;3.10;;;13.60;99.90;;;;;;4991095;28;20572;-54
2023/09/16 03:23:36;;;;;;;10.00;3.10;;;13.60;99.90;;;;;;4988425;28;20981;-53
2023/09/16 03:26:03;;;;;;;13.23;3.60;;;13.50;99.90;;;;;;4989452;28;20547;-54
2023/09/16 03:28:30;;;;;;;5.57;2.77;;;13.50;99.90;;;;;;4989607;28;20970;-54
2023/09/16 03:30:57;;;;;;;3.77;3.10;;;13.50;99.90;;;;;;4982933;28;20572;-54
2023/09/16 03:33:23;;;;;;;6.47;3.60;;;13.50;99.90;;;;;;4989129;28;20575;-54
2023/09/16 03:35:50;;;;;;;4.30;3.50;;;13.50;99.90;;;;;;4988216;28;20559;-53
2023/09/16 03:38:17;;;;;;;4.20;3.43;;;13.50;99.90;;;;;;4992100;28;20555;-52
2023/09/16 03:40:45;;;;;;;4.87;3.23;;;13.40;99.90;;;;;;4988256;28;20539;-53
2023/09/16 03:43:11;;;;;;;6.07;3.60;;;13.40;99.90;;;;;;4991461;28;20492;-53
2023/09/16 03:45:38;;;;;;;4.20;3.03;;;13.40;99.90;;;;;;4989836;28;20504;-54
2023/09/16 03:48:05;;;;;;;5.97;3.70;;;13.40;99.90;;;;;;4987836;28;20516;-53
2023/09/16 03:50:32;;;;;;;6.70;3.67;;;13.30;99.90;;;;;;4983798;28;21060;-52
2023/09/16 03:52:58;;;;;;;3.70;3.40;;;13.30;99.90;;;;;;4989402;28;20448;-53
2023/09/16 03:55:25;;;;;;;6.73;3.77;;;13.30;99.90;;;;;;4990050;28;20501;-54
2023/09/16 03:57:53;;;;;;;4.73;3.30;;;13.20;99.90;;;;;;4990738;28;20572;-54
2023/09/16 04:00:19;;;;;;;6.83;2.93;;;13.20;99.90;;;;;;4988049;28;20456;-54
2023/09/16 04:02:46;;;;;;;4.10;3.60;;;13.20;99.90;;;;;;4990512;28;20480;-53
2023/09/16 04:05:13;;;;;;;4.87;3.70;;;13.20;99.90;;;;;;4990769;28;20465;-54
2023/09/16 04:07:40;;;;;;;7.73;3.57;;;13.10;99.90;;;;;;4989002;28;20480;-55
2023/09/16 04:10:07;;;;;;;4.57;2.97;;;13.10;99.90;;;;;;4990201;28;20571;-53
2023/09/16 04:12:34;;;;;;;3.83;3.20;;;13.10;99.90;;;;;;4991119;28;20453;-53
2023/09/16 04:15:02;;;;;;;10.60;3.83;;;13.10;99.90;;;;;;4991055;28;20542;-54
2023/09/16 04:17:29;;;;;;;4.43;3.57;;;13.00;99.90;;;;;;4992754;28;20516;-53
2023/09/16 04:19:56;;;;;;;6.30;3.60;;;13.00;99.90;;;;;;4995948;28;20570;-52
2023/09/16 04:22:22;;;;;;;5.40;3.60;;;13.00;99.90;;;;;;4992018;28;20502;-52
2023/09/16 04:24:49;;;;;;;4.90;3.80;;;13.00;99.90;;;;;;4992459;28;20496;-54
2023/09/16 04:27:15;;;;;;;4.80;3.33;;;13.00;99.90;;;;;;4993235;28;20467;-54
2023/09/16 04:29:42;;;;;;;13.17;3.93;;;13.00;99.90;;;;;;4992958;28;21017;-52
2023/09/16 04:32:10;;;;;;;6.33;3.40;;;13.00;99.90;;;;;;4993370;28;20587;-53
2023/09/16 04:34:36;;;;;;;3.43;3.13;;;12.90;99.90;;;;;;4995846;28;20890;-52
2023/09/16 04:37:05;;;;;;;5.03;3.30;;;12.90;99.90;;;;;;4991486;28;20548;-53
2023/09/16 04:39:32;;;;;;;8.13;4.10;;;12.90;99.90;;;;;;4989925;28;20570;-54
2023/09/16 04:41:58;;;;;;;4.53;4.03;;;12.90;99.90;;;;;;4990963;28;20492;-53
2023/09/16 04:44:25;;;;;;;38.93;4.40;;;12.90;99.90;;;;;;4991959;28;20484;-52
2023/09/16 04:46:53;;;;;;;7.97;3.30;;;12.90;99.90;;;;;;4992961;28;20464;-54
2023/09/16 04:49:21;;;;;;;3.93;3.57;;;12.90;99.90;;;;;;4994121;28;21018;-53
2023/09/16 04:51:47;;;;;;;5.67;3.60;;;12.90;99.90;;;;;;4984549;28;20543;-53
2023/09/16 04:54:14;;;;;;;5.33;3.63;;;12.80;99.90;;;;;;4994078;28;20464;-54
2023/09/16 04:56:41;;;;;;;3.90;3.50;;;12.80;99.90;;;;;;4992998;28;20552;-52
2023/09/16 04:59:07;;;;;;;5.97;3.50;;;12.80;99.90;;;;;;4993013;28;21044;-53
2023/09/16 05:01:34;;;;;;;4.83;3.07;;;12.80;99.90;;;;;;4989146;28;20547;-54
2023/09/16 05:04:00;;;;;;;7.10;3.33;;;12.80;99.90;;;;;;4992676;28;20523;-53
2023/09/16 05:06:28;;;;;;;7.57;3.87;;;12.80;99.90;;;;;;4991575;28;20498;-54
2023/09/16 05:08:55;;;;;;;7.40;3.43;;;12.90;99.90;;;;;;4985696;28;20563;-53
2023/09/16 05:11:21;;;;;;;4.77;3.47;;;12.80;99.90;;;;;;4992933;28;20920;-54
2023/09/16 05:13:50;;;;;;;4.73;3.27;;;12.90;99.90;;;;;;4994498;28;20472;-54
2023/09/16 05:16:16;;;;;;;7.83;3.67;;;12.90;99.90;;;;;;4994165;28;20566;-54
2023/09/16 05:18:43;;;;;;;4.27;3.70;;;12.90;99.90;;;;;;4995117;28;20514;-54
2023/09/16 05:21:10;;;;;;;6.63;4.10;;;12.90;99.90;;;;;;4990589;28;20461;-55
2023/09/16 05:23:38;;;;;;;9.80;3.73;;;12.90;99.90;;;;;;4990511;28;20511;-54
2023/09/16 05:26:05;;;;;;;4.03;3.33;;;12.90;99.90;;;;;;4986761;28;20464;-54
2023/09/16 05:28:31;;;;;;;7.10;4.80;;;13.00;99.90;;;;;;4989188;28;20484;-54
2023/09/16 05:30:58;;;;;;;5.63;3.23;;;13.00;99.90;;;;;;4992509;28;20902;-53
2023/09/16 05:33:25;;;;;;;8.43;4.17;;;13.10;99.90;;;;;;4986020;28;20559;-54
2023/09/16 05:35:52;;;;;;;8.00;4.20;;;13.00;99.90;;;;;;4990785;28;20883;-54
2023/09/16 05:38:18;;;;;;;3.17;2.80;;;13.10;99.90;;;;;;4990695;28;20512;-53
2023/09/16 05:40:46;;;;;;;7.53;4.00;;;13.10;99.90;;;;;;4993520;28;20494;-52
2023/09/16 05:43:13;;;;;;;6.97;3.80;;;13.10;99.90;;;;;;4994298;28;20527;-53
2023/09/16 05:45:39;;;;;;;4.20;3.40;;;13.10;99.90;;;;;;4990161;28;20548;-54
2023/09/16 05:48:06;;;;;;;4.73;3.67;;;13.20;99.90;;;;;;4991371;28;20512;-54
2023/09/16 05:50:33;;;;;;;8.10;3.90;;;13.20;99.90;;;;;;4991041;28;20559;-52
2023/09/16 05:52:59;;;;;;;12.67;3.97;;;13.30;99.90;;;;;;4985470;28;20552;-53
2023/09/16 05:55:26;;;;;;;8.47;3.50;;;13.30;99.90;;;;;;4991141;28;20543;-55
2023/09/16 05:57:54;;;;;;;5.70;3.63;;;13.30;99.90;;;;;;4984771;28;20595;-53
2023/09/16 06:00:20;;;;;;;4.13;3.43;;;13.40;99.90;;;;;;4992021;28;20460;-54
2023/09/16 06:02:47;;;;;;;9.47;3.83;;;13.40;99.90;;;;;;4986261;28;20556;-53
2023/09/16 06:05:14;;;;;;;8.20;3.60;;;13.40;99.90;;;;;;4991283;28;20492;-54
2023/09/16 06:07:41;;;;;;;5.20;3.80;;;13.40;99.90;;;;;;4989932;28;20567;-53
2023/09/16 06:10:08;;;;;;;4.87;3.80;;;13.50;99.90;;;;;;4998554;28;21209;-53
2023/09/16 06:12:35;;;;;;;12.53;4.00;;;13.60;99.90;;;;;;4983791;28;20539;-53
2023/09/16 06:15:03;;;;;;;6.20;4.40;;;13.70;99.90;;;;;;4991134;28;20492;-54
2023/09/16 06:17:29;;;;;;;3.77;3.40;;;13.70;99.90;;;;;;4992084;28;20615;-54
2023/09/16 06:19:56;;;;;;;6.70;4.40;;;13.70;99.90;;;;;;4993039;28;20492;-54
2023/09/16 06:22:23;;;;;;;5.03;3.93;;;13.70;99.90;;;;;;4997276;28;20467;-54
2023/09/16 06:24:51;;;;;;;14.00;3.57;;;13.80;99.90;;;;;;4992532;28;20500;-53
2023/09/16 06:27:17;;;;;;;8.10;4.63;;;13.80;99.90;;;;;;4992785;28;20456;-52
2023/09/16 06:29:46;;;;;;;6.93;3.90;;;13.80;99.90;;;;;;4992174;28;20493;-52
2023/09/16 06:32:14;;;;;;;8.97;4.20;;;13.90;99.90;;;;;;4987049;28;20507;-53
2023/09/16 06:34:40;;;;;;;11.53;4.00;;;13.90;99.90;;;;;;5001897;28;20472;-52
2023/09/16 06:37:07;;;;;;;8.57;4.97;;;14.00;99.90;;;;;;4996922;28;21235;-52
2023/09/16 06:39:34;;;;;;;8.43;4.00;;;14.10;99.90;;;;;;4996725;28;20563;-52
2023/09/16 06:42:00;;;;;;;7.13;3.37;;;14.20;99.90;;;;;;4983823;28;20544;-52
2023/09/16 06:44:27;;;;;;;6.20;3.70;;;14.30;99.90;;;;;;4995869;28;20529;-52
2023/09/16 06:46:53;;;;;;;4.63;4.00;;;14.40;99.90;;;;;;4992845;28;20583;-52
2023/09/16 06:49:21;;;;;;;8.30;3.60;;;14.40;99.90;;;;;;4988112;28;20512;-52
2023/09/16 06:51:48;;;;;;;4.97;4.20;;;14.50;99.90;;;;;;4988454;28;21060;-52
2023/09/16 06:54:14;;;;;;;5.17;4.37;;;14.60;99.90;;;;;;4992021;28;20484;-52
2023/09/16 06:56:41;;;;;;;9.17;4.37;;;14.70;99.90;;;;;;4988941;28;20519;-53
2023/09/16 06:59:08;;;;;;;6.17;3.43;;;14.70;99.90;;;;;;4989341;28;20539;-53
2023/09/16 07:01:35;;;;;;;6.53;4.47;;;14.80;99.90;;;;;;4988806;28;20821;-52
2023/09/16 07:04:01;;;;;;;5.03;4.00;;;14.90;99.90;;;;;;4986504;28;20479;-53
2023/09/16 07:06:30;;;;;;;8.57;4.60;;;15.00;99.90;;;;;;4989289;28;20499;-51
2023/09/16 07:08:56;;;;;;;12.23;4.20;;;15.10;99.90;;;;;;4991536;28;20882;-52
2023/09/16 07:11:23;;;;;;;9.30;3.87;;;15.20;99.90;;;;;;4987442;28;20476;-52
2023/09/16 07:13:49;;;;;;;7.17;4.00;;;15.20;99.90;;;;;;4987754;28;20540;-51
2023/09/16 07:16:19;;;;;;;7.93;3.60;;;15.30;99.90;;;;;;4988872;28;20461;-51
2023/09/16 07:18:45;;;;;;;18.00;4.47;;;15.40;99.90;;;;;;4987693;28;20775;-51
2023/09/16 07:21:12;;;;;;;8.73;4.20;;;15.60;99.90;;;;;;4986395;28;20547;-54
2023/09/16 07:23:40;;;;;;;6.67;4.20;;;15.70;99.90;;;;;;4989478;28;20555;-52
2023/09/16 07:26:07;;;;;;;4.17;3.77;;;15.70;99.90;;;;;;4990824;28;20547;-53
2023/09/16 07:28:34;;;;;;;13.70;4.10;;;15.90;99.90;;;;;;4983419;28;20484;-53
2023/09/16 07:31:00;;;;;;;3.87;3.43;;;16.00;99.90;;;;;;4988808;28;20571;-54
2023/09/16 07:33:27;;;;;;;9.67;4.07;;;16.00;99.90;;;;;;4986293;28;20556;-54
2023/09/16 07:35:53;;;;;;;7.00;4.10;;;16.10;21.90;;;;;;4986719;28;20543;-53
2023/09/16 07:38:20;;;;;;;11.50;3.93;;;16.10;99.90;;;;;;4987722;28;20539;-54
2023/09/16 07:40:51;;;;;;;5.70;3.70;;;16.20;99.90;;;;;;4994177;28;20574;-53
2023/09/16 07:43:18;;;;;;;4.00;3.50;;;16.30;75.10;;;;;;4986124;28;20567;-53
2023/09/16 07:45:45;;;;;;;6.13;3.30;;;16.40;79.70;;;;;;4984505;28;20465;-54
2023/09/16 07:48:13;;;;;;;5.27;3.87;;;16.40;99.90;;;;;;4989153;28;20491;-53
2023/09/16 07:50:40;;;;;;;10.73;5.43;;;16.60;25.10;;;;;;4995625;28;20484;-53
2023/09/16 07:53:06;;;;;;;8.80;4.20;;;16.60;22.60;;;;;;5002249;28;20554;-53
2023/09/16 07:55:33;;;;;;;17.60;4.10;;;16.70;22.70;;;;;;4995298;28;20496;-53
2023/09/16 07:58:01;;;;;;;5.67;3.70;;;16.90;30.00;;;;;;4982795;28;20568;-52
2023/09/16 08:00:28;;;;;;;10.20;4.40;;;16.90;34.00;;;;;;4989479;28;20465;-52
2023/09/16 08:02:55;;;;;;;5.93;4.43;;;17.00;38.30;;;;;;4985375;28;20459;-54
2023/09/16 08:05:21;;;;;;;6.20;3.73;;;17.10;34.90;;;;;;4997609;28;21001;-53
2023/09/16 08:07:49;;;;;;;9.20;4.47;;;17.20;43.70;;;;;;4990266;28;20539;-54
2023/09/16 08:10:15;;;;;;;6.90;3.87;;;17.30;28.30;;;;;;4989045;28;20679;-54
2023/09/16 08:12:42;;;;;;;6.63;4.17;;;17.40;41.90;;;;;;4993502;28;20496;-53
2023/09/16 08:15:10;;;;;;;5.97;4.20;;;17.50;61.10;;;;;;5003300;28;20503;-53
2023/09/16 08:17:38;;;;;;;7.87;4.40;;;17.60;55.30;;;;;;4984696;28;20525;-53
2023/09/16 08:20:05;;;;;;;6.57;4.00;;;17.60;62.00;;;;;;4996767;28;20460;-54
2023/09/16 08:22:32;;;;;;;6.70;4.27;;;17.70;61.40;;;;;;4994310;28;20998;-54
2023/09/16 08:24:58;;;;;;;5.80;3.27;;;17.80;71.70;;;;;;5000729;28;20491;-52
2023/09/16 08:27:25;;;;;;;4.13;3.70;;;17.90;73.50;;;;;;4989657;28;20903;-56
2023/09/16 08:29:54;;;;;;;9.77;4.67;;;18.00;69.10;;;;;;4985663;28;20462;-52
2023/09/16 08:32:24;;;;;;;5.37;4.10;;;18.10;84.10;;;;;;4993851;28;20575;-54
2023/09/16 08:34:51;;;;;;;7.87;3.80;;;18.20;80.80;;;;;;4983552;28;20551;-55
2023/09/16 08:37:18;;;;;;;3.63;3.33;;;18.40;77.00;;;;;;4985628;28;20970;-52
2023/09/16 08:39:44;;;;;;;5.47;3.13;;;18.50;80.50;;;;;;4989747;28;20995;-55
2023/09/16 08:42:18;;;;;;;4.33;3.50;;;18.60;84.20;;;;;;4982890;28;21126;-53
2023/09/16 08:44:49;;;;;;;4.03;3.63;;;18.60;88.10;;;;;;4984233;28;20556;-54
2023/09/16 08:47:24;;;;;;;7.43;3.73;;;18.80;85.80;;;;;;4987951;28;20545;-54
2023/09/16 08:49:53;;;;;;;4.37;3.47;;;18.80;92.20;;;;;;4983297;28;20623;-53
2023/09/16 08:52:22;;;;;;;9.53;4.03;;;18.60;91.20;;;;;;4986341;28;21173;-53
2023/09/16 08:54:50;;;;;;;5.80;3.80;;;18.70;88.50;;;;;;4989061;28;20464;-53
2023/09/16 08:57:17;;;;;;;4.10;3.50;;;19.00;92.20;;;;;;4985034;28;20540;-54
2023/09/16 08:59:44;;;;;;;6.43;4.23;;;19.30;94.40;;;;;;4990872;28;20499;-53
2023/09/16 09:02:12;;;;;;;5.43;3.93;;;19.40;99.90;;;;;;4984873;28;20464;-53
2023/09/16 09:04:40;;;;;;;8.17;4.67;;;19.50;99.90;;;;;;4992331;28;21030;-54
2023/09/16 09:07:08;;;;;;;4.00;3.67;;;19.70;99.90;;;;;;4989137;28;21631;-54
2023/09/16 09:09:34;;;;;;;5.87;4.10;;;19.70;99.90;;;;;;4993723;28;20926;-54
2023/09/16 09:12:01;;;;;;;4.33;3.77;;;19.80;99.90;;;;;;4988608;28;20510;-52
2023/09/16 09:14:30;;;;;;;3.60;2.80;;;19.90;99.90;;;;;;4999127;28;20500;-55
2023/09/16 09:17:00;;;;;;;8.13;3.90;;;19.90;99.90;;;;;;5000222;28;20550;-54
2023/09/16 09:19:26;;;;;;;4.90;3.70;;;20.10;99.90;;;;;;5001815;28;20856;-53
2023/09/16 09:21:57;;;;;;;6.90;3.57;;;20.30;99.90;;;;;;5003213;28;20555;-53
2023/09/16 09:24:23;;;;;;;7.87;4.23;;;20.40;99.90;;;;;;4991730;28;20464;-54
2023/09/16 09:26:50;;;;;;;9.03;4.50;;;20.50;99.90;;;;;;4988474;28;20572;-53
2023/09/16 09:29:16;;;;;;;3.57;3.27;;;20.60;99.90;;;;;;4985981;28;20567;-54
2023/09/16 09:31:44;;;;;;;4.10;3.70;;;20.70;99.90;;;;;;4982550;28;20626;-52
2023/09/16 09:34:16;;;;;;;7.40;3.53;;;20.80;99.90;;;;;;4988544;28;20492;-53
2023/09/16 09:36:43;;;;;;;3.80;3.50;;;20.90;99.90;;;;;;4987964;28;20550;-54
2023/09/16 09:39:10;;;;;;;4.90;3.63;;;20.80;99.90;;;;;;4986876;28;20507;-53
2023/09/16 09:41:43;;;;;;;4.90;3.77;;;20.90;99.90;;;;;;4988148;28;20449;-53
2023/09/16 09:44:10;;;;;;;5.83;3.33;;;21.00;99.90;;;;;;4995150;28;20517;-52
2023/09/16 09:46:36;;;;;;;7.33;4.17;;;21.20;99.90;;;;;;4989365;28;20461;-53
2023/09/16 09:49:03;;;;;;;16.17;3.70;;;21.30;99.90;;;;;;4988187;28;20575;-53
2023/09/16 09:51:30;;;;;;;3.30;3.07;;;21.30;99.90;;;;;;4989385;28;20555;-54
2023/09/16 09:53:56;;;;;;;3.57;3.20;;;21.50;99.90;;;;;;4992229;28;20864;-54
2023/09/16 09:56:24;;;;;;;4.10;3.50;;;21.60;99.90;;;;;;4990511;28;20550;-54
2023/09/16 09:58:51;;;;;;;7.50;3.37;;;21.80;99.90;;;;;;4992729;28;20492;-53
2023/09/16 10:01:18;;;;;;;3.20;2.90;;;21.90;99.90;;;;;;4991219;28;20575;-54
2023/09/16 10:03:48;;;;;;;7.40;3.60;;;22.00;99.90;;;;;;4988492;28;20551;-53
2023/09/16 10:06:16;;;;;;;7.27;3.67;;;21.80;99.90;;;;;;4988789;28;20457;-54
2023/09/16 10:08:43;;;;;;;6.63;3.97;;;22.00;99.90;;;;;;4984929;28;20623;-54
2023/09/16 10:11:09;;;;;;;7.10;3.93;;;22.10;99.90;;;;;;4988560;28;20551;-54
2023/09/16 10:13:37;;;;;;;4.10;3.70;;;22.20;99.90;;;;;;4989307;28;20603;-53
2023/09/16 10:16:05;;;;;;;5.07;3.80;;;22.10;99.90;;;;;;4985462;28;20491;-53
2023/09/16 10:18:31;;;;;;;4.23;3.70;;;22.60;99.90;;;;;;4989809;28;20535;-54
2023/09/16 10:20:58;;;;;;;6.80;3.87;;;22.70;99.90;;;;;;4992377;28;20460;-53
2023/09/16 10:23:26;;;;;;;6.00;3.90;;;23.10;99.90;;;;;;4991181;28;20456;-53
2023/09/16 10:25:53;;;;;;;9.77;3.47;;;23.10;99.90;;;;;;4992727;28;20527;-52
2023/09/16 10:28:19;;;;;;;3.93;3.50;;;23.40;99.90;;;;;;4992305;28;20575;-54
2023/09/16 10:30:49;;;;;;;5.87;3.80;;;23.80;99.90;;;;;;4996343;28;20500;-54
2023/09/16 10:33:17;;;;;;;3.93;3.60;;;23.50;1.40;;;;;;4986646;28;20502;-53
2023/09/16 10:35:44;;;;;;;9.23;3.43;;;23.80;99.90;;;;;;4986013;28;20494;-55
2023/09/16 10:38:12;;;;;;;5.60;4.13;;;23.90;99.90;;;;;;4988536;28;20515;-54
2023/09/16 10:40:39;;;;;;;3.47;3.17;;;23.80;99.90;;;;;;4985478;28;20492;-53
2023/09/16 10:43:06;;;;;;;7.60;3.60;;;23.50;99.90;;;;;;4988738;28;20491;-54
2023/09/16 10:45:33;;;;;;;6.00;3.47;;;23.70;99.90;;;;;;4990897;28;20547;-53
2023/09/16 10:48:02;;;;;;;3.73;3.33;;;23.70;99.90;;;;;;4987073;28;20512;-54
2023/09/16 10:50:30;;;;;;;5.30;3.57;;;23.30;99.90;;;;;;4984343;28;21024;-54
2023/09/16 10:53:04;;;;;;;3.47;3.10;;;23.20;99.90;;;;;;4980885;28;20480;-52
2023/09/16 10:55:38;;;;;;;12.37;4.00;;;23.20;99.90;;;;;;4979646;28;20469;-54
2023/09/16 10:58:10;;;;;;;5.30;3.50;;;23.10;99.90;;;;;;4998480;28;20476;-53
2023/09/16 11:00:39;;;;;;;3.80;3.40;;;23.20;99.90;;;;;;4986617;28;20460;-52
2023/09/16 11:03:12;;;;;;;4.73;3.90;;;23.80;99.90;;;;;;4986220;28;20567;-53
2023/09/16 11:05:39;;;;;;;5.03;3.77;;;23.60;1.40;;;;;;4989531;28;20888;-54
2023/09/16 11:08:06;;;;;;;9.33;3.67;;;23.50;99.90;;;;;;4979944;28;20571;-54
2023/09/16 11:10:33;;;;;;;9.10;3.47;;;23.60;99.90;;;;;;4983704;28;20534;-52
2023/09/16 11:13:01;;;;;;;3.30;3.00;;;23.50;99.90;;;;;;4984837;28;20638;-54
2023/09/16 11:15:31;;;;;;;5.10;3.60;;;23.70;99.90;;;;;;4990013;28;21030;-53
2023/09/16 11:18:01;;;;;;;4.60;3.50;;;23.20;99.90;;;;;;4990153;28;20480;-53
2023/09/16 11:20:31;;;;;;;6.90;3.80;;;23.20;99.90;;;;;;4987234;28;20460;-55
2023/09/16 11:22:58;;;;;;;5.47;3.57;;;23.20;99.90;;;;;;4985437;28;20955;-53
2023/09/16 11:25:24;;;;;;;5.97;3.93;;;23.20;99.90;;;;;;4991066;28;20499;-55
2023/09/16 11:27:51;;;;;;;4.33;3.93;;;23.00;99.90;;;;;;4985881;28;20588;-53
2023/09/16 11:30:18;;;;;;;4.23;3.60;;;23.10;99.90;;;;;;4988174;28;20548;-54
2023/09/16 11:33:08;;;;;;;4.57;4.13;;;22.90;99.90;;;;;;4986303;28;20900;-54
2023/09/16 11:35:37;;;;;;;4.80;3.97;;;23.00;99.90;;;;;;4983167;28;20465;-52
2023/09/16 11:38:04;;;;;;;6.20;4.20;;;23.20;99.90;;;;;;4986041;28;20480;-54
2023/09/16 11:40:33;;;;;;;6.50;4.50;;;23.30;99.90;;;;;;4987572;28;20476;-53
2023/09/16 11:43:00;;;;;;;5.73;3.23;;;23.40;99.90;;;;;;4982704;28;20903;-54
2023/09/16 11:45:29;;;;;;;3.70;3.40;;;23.40;99.90;;;;;;4989738;28;20988;-52
2023/09/16 11:47:55;;;;;;;4.57;3.47;;;23.40;99.90;;;;;;4987571;28;20575;-53
2023/09/16 11:50:23;;;;;;;7.10;3.80;;;23.50;99.90;;;;;;4987438;28;20503;-53
2023/09/16 11:52:51;;;;;;;4.67;4.07;;;23.50;99.90;;;;;;4984918;28;20626;-53
2023/09/16 11:55:18;;;;;;;5.20;3.50;;;23.50;99.90;;;;;;4988538;28;20464;-53
2023/09/16 11:57:46;;;;;;;3.87;3.57;;;23.60;99.90;;;;;;4983013;28;20604;-55
2023/09/16 12:00:14;;;;;;;3.80;3.43;;;23.60;99.90;;;;;;4980923;28;20553;-54
2023/09/16 12:02:41;;;;;;;7.23;3.60;;;23.70;99.90;;;;;;4993677;28;20509;-54
2023/09/16 12:05:10;;;;;;;8.00;3.87;;;23.70;99.90;;;;;;4992304;28;20912;-54
2023/09/16 12:07:37;;;;;;;3.80;3.40;;;23.80;99.90;;;;;;4991187;28;20917;-52
2023/09/16 12:10:07;;;;;;;4.10;3.37;;;24.00;99.90;;;;;;4986951;28;20546;-55
2023/09/16 12:12:33;;;;;;;22.77;4.03;;;24.20;99.90;;;;;;4980342;28;20535;-54
2023/09/16 12:15:01;;;;;;;5.00;3.67;;;24.10;99.90;;;;;;4974755;28;20559;-52
2023/09/16 12:17:28;;;;;;;3.40;3.10;;;24.50;99.90;;;;;;4969416;28;20540;-55
2023/09/16 12:19:56;;;;;;;7.63;3.93;;;24.60;99.90;;;;;;4990224;28;20550;-53
2023/09/16 12:22:23;;;;;;;5.87;3.80;;;24.60;99.90;;;;;;4993920;28;20898;-54
2023/09/16 12:24:53;;;;;;;4.80;3.97;;;24.50;99.90;;;;;;4994319;28;20460;-54
2023/09/16 12:27:21;;;;;;;5.57;3.53;;;25.00;99.90;;;;;;4990038;28;20586;-54
2023/09/16 12:29:47;;;;;;;3.80;3.50;;;25.50;99.90;;;;;;4988905;28;20559;-51
2023/09/16 12:32:17;;;;;;;5.63;3.23;;;25.80;99.90;;;;;;4984993;28;20516;-52
2023/09/16 12:34:44;;;;;;;4.70;3.60;;;26.50;99.90;;;;;;4984751;28;20536;-52
2023/09/16 12:37:11;;;;;;;3.70;3.17;;;26.10;99.90;;;;;;4991526;28;20464;-52
2023/09/16 12:39:39;;;;;;;6.43;3.87;;;25.60;99.90;;;;;;4992830;28;20579;-52
2023/09/16 12:42:06;;;;;;;4.57;3.90;;;26.20;99.90;;;;;;4993764;28;20467;-52
2023/09/16 12:44:36;;;;;;;3.87;3.43;;;26.30;99.90;;;;;;4993436;28;21031;-52
2023/09/16 12:47:04;;;;;;;5.77;3.33;;;26.20;99.90;;;;;;4990772;28;20572;-52